Main page
METAR-TAF:

METAR-TAF

Airports :

Toulouse–Blagnac Airport

Toulouse, France

latitude: 43-38N, longitude: 001-22E, elevation: 152 m

Current weather observation

The report was made 27 minutes ago, at 03:30 UTC
Wind 6 kt from the West/Southwest, varying between South/Southwest and West
Temperature 14°C
Humidity 82%
Pressure 1027 hPa
Visibility 10 km or more
no clouds below 1500 m and no cumulonimbus

METAR: LFBO 260330Z AUTO 25006KT 210V280 CAVOK 14/11 Q1027 NOSIG

Time: 05:57 (03:57 UTC)

Forecast

The report was made 4 hours and 57 minutes ago, at 23:00 UTC
Forecast valid from 26 at 00 UTC to 27 at 06 UTC
Wind 8 kt from the West
Visibility 10 km or more
no clouds below 1500 m and no cumulonimbus
Temporary
from 26 at 10 UTC to 26 at 19 UTC
Wind 7 kt from the North/Northwest
Becoming
from 26 at 20 UTC to 26 at 22 UTC
Wind 2 kt from variable directions

TAF: LFBO 252300Z 2600/2706 27008KT CAVOK TEMPO 2610/2619 34007KT BECMG 2620/2622 VRB02KT

Weather observations and forecasts of more than 4000 airports (METAR and TAF reports).

The available stations are represented by yellow and red dots on the map.

Hover mouse over dot to see the name of the station.

Then click to see weather observations and forecasts.

To change the map : click on the green buttons with a black cross to zoom in, on the green button with a dash to zoom out, or on the green arrows for adjacent maps.


METAR-TAF: